Thunder radar more information blitzortung!


Radar de pluja more information rain snow radar


Visita la nostra xarxa de llocs de meteo:

Template documentation
and downloads

And another site



No particular awareness of the weather is required.    There are no Weather-warnings

Pagina Historial Weather Underground text

Diari Resum Marc 28, 2016 Unitats:  Mètric    Imperial   Tant
« Previous Dia
SegĂźent Dia »
Diari Setmana Mensual Anual Personalitzada
  Maxima: Minima: Media:
Temperatura: -17.8 °C -13.7 °C -9.4 °C
Punt de rosada: -17.8 °C -16.3 °C -15.2 °C
Humitat: Humidity % 40 % 50 %
Wind Speed: 0 km/h 0 km/h 11.4 km/h
RĂ fegues de vent: 0 km/h - -
Vent:- - WSW
Pression baro: 0 hPa 34361.1 hPa -
Precipitacions: 0 mm    
Historical Graphs
 
 
Dades de taula per Marc 28, 2016
Temps Temperatura Punt de rosada Pression baro Vent Wind Speed RĂ fegues de vent Humitat Rainfall Rate (Hourly)
-17.8 °C -17.8 °C 0 hPa Calm     Humidity % 0 mm
00:01 -11.8 °C -14.6 °C 34496.6 hPa Calm     71 % 0 mm
00:06 -11.8 °C -14.5 °C 34496.6 hPa Calm     72 % 0 mm
00:11 -11.8 °C -14.6 °C 34496.6 hPa Calm     71 % 0 mm
00:16 -11.9 °C -14.7 °C 34496.6 hPa Calm     71 % 0 mm
00:55 -13 °C -15.3 °C 34428.8 hPa WSW 2.6 km/h 2.6 km/h 75 % 0 mm
01:05 -13 °C -15.4 °C 34428.8 hPa Calm   5.1 km/h 74 % 0 mm
01:15 -13.1 °C -15.6 °C 34395 hPa WSW 2.6 km/h 5.1 km/h 73 % 0 mm
01:25 -13.2 °C -15.6 °C 34395 hPa SSW 2.6 km/h 5.1 km/h 74 % 0 mm
01:35 -13.3 °C -15.6 °C 34395 hPa East 5.1 km/h 5.1 km/h 75 % 0 mm
01:45 -13.3 °C -15.5 °C 34361.1 hPa ENE 5.1 km/h 5.1 km/h 76 % 0 mm
01:55 -13.4 °C -15.6 °C 34395 hPa Calm   5.1 km/h 76 % 0 mm
02:05 -13.6 °C -15.8 °C 34395 hPa Calm   2.6 km/h 76 % 0 mm
02:15 -13.7 °C -15.9 °C 34395 hPa Calm   5.1 km/h 75 % 0 mm
02:25 -13.6 °C -16.1 °C 34361.1 hPa Calm   5.1 km/h 73 % 0 mm
02:35 -13.3 °C -15.9 °C 34361.1 hPa SW 5.1 km/h 5.1 km/h 72 % 0 mm
02:45 -12.9 °C -15.8 °C 34395 hPa WSW 5.1 km/h 7.7 km/h 70 % 0 mm
02:55 -12.7 °C -15.9 °C 34395 hPa WSW 5.1 km/h 7.7 km/h 67 % 0 mm
03:05 -12.8 °C -16.1 °C 34395 hPa WSW 2.6 km/h 7.7 km/h 66 % 0 mm
03:15 -12.8 °C -16.2 °C 34395 hPa WSW 5.1 km/h 10.3 km/h 65 % 0 mm
03:25 -12.8 °C -16.3 °C 34395 hPa WSW 5.1 km/h 7.7 km/h 65 % 0 mm
03:35 -12.8 °C -16.3 °C 34395 hPa WSW 5.1 km/h 10.3 km/h 65 % 0 mm
03:45 -12.6 °C -16.3 °C 34395 hPa WSW 5.1 km/h 10.3 km/h 63 % 0 mm
03:55 -12.2 °C -16.1 °C 34395 hPa Calm   7.7 km/h 62 % 0 mm
04:05 -12.3 °C -15.9 °C 34395 hPa WSW 2.6 km/h 5.1 km/h 64 % 0 mm
04:15 -12.6 °C -15.9 °C 34395 hPa SSE 2.6 km/h 5.1 km/h 66 % 0 mm
04:25 -12.6 °C -15.8 °C 34395 hPa SW 2.6 km/h 5.1 km/h 67 % 0 mm
04:35 -12.1 °C -15.6 °C 34395 hPa WSW 2.6 km/h 5.1 km/h 65 % 0 mm
04:45 -11.6 °C -15.4 °C 34395 hPa WSW 5.1 km/h 10.3 km/h 62 % 0 mm
04:55 -11.4 °C -15.3 °C 34395 hPa WSW 2.6 km/h 5.1 km/h 62 % 0 mm
05:05 -11.2 °C -15.3 °C 34395 hPa WSW 2.6 km/h 7.7 km/h 61 % 0 mm
05:15 -10.8 °C -15.5 °C 34395 hPa West 5.1 km/h 7.7 km/h 56 % 0 mm
05:25 -10.6 °C -15.4 °C 34395 hPa West 2.6 km/h 10.3 km/h 56 % 0 mm
05:35 -10.5 °C -15.3 °C 34395 hPa WSW 2.6 km/h 7.7 km/h 56 % 0 mm
06:05 -9.9 °C -15.2 °C 34428.8 hPa WSW 7.7 km/h 7.7 km/h 53 % 0 mm
06:15 -9.7 °C -15.1 °C 34395 hPa WSW 7.7 km/h 15.6 km/h 52 % 0 mm
06:25 -9.6 °C -15.1 °C 34395 hPa WSW 7.7 km/h 15.6 km/h 51 % 0 mm
06:35 -9.4 °C -15.2 °C 34395 hPa West 5.1 km/h 7.7 km/h 50 % 0 mm
06:45 -9.3 °C -15.1 °C 34395 hPa WSW 7.7 km/h 18.2 km/h 50 % 0 mm
11:47 -9.2 °C -15.2 °C 34395 hPa West 9 km/h 11.1 km/h 49 % 0 mm
11:52 -9.2 °C -15.2 °C 34428.8 hPa WNW 9 km/h 9 km/h 49 % 0 mm
11:57 -9.2 °C -15.3 °C 34428.8 hPa West 20.9 km/h 20.9 km/h 48 % 0 mm
12:02 -9.2 °C -15.1 °C 34428.8 hPa WNW 6.8 km/h 6.8 km/h 49 % 0 mm
12:07 -9.2 °C -15.1 °C 34395 hPa WSW 16.6 km/h 16.6 km/h 49 % 0 mm
12:12 -9.3 °C -15.4 °C 34395 hPa NW 6 km/h 6 km/h 48 % 0 mm
12:17 -9.3 °C -15.5 °C 34395 hPa West 15 km/h 15 km/h 47 % 0 mm
12:22 -9.3 °C -15.5 °C 34395 hPa WSW 20.9 km/h 20.9 km/h 47 % 0 mm
12:27 -9.2 °C -15.5 °C 34395 hPa WNW 9 km/h 9 km/h 47 % 0 mm
12:32 -9.2 °C -15.4 °C 34395 hPa WSW 9 km/h 9 km/h 47 % 0 mm
12:37 -9.2 °C -15.6 °C 34395 hPa SW 20.9 km/h 20.9 km/h 46 % 0 mm
12:42 -9.2 °C -15.4 °C 34395 hPa SW 17.9 km/h 17.9 km/h 47 % 0 mm
12:47 -9 °C -15.3 °C 34395 hPa West 11.1 km/h 11.1 km/h 47 % 0 mm
12:52 -9 °C -15.4 °C 34428.8 hPa WSW 15 km/h 15 km/h 46 % 0 mm
12:57 -8.9 °C -15.3 °C 34428.8 hPa SW 9.3 km/h 9.3 km/h 46 % 0 mm
13:02 -8.8 °C -15.3 °C 34428.8 hPa SW 16.1 km/h 16.1 km/h 46 % 0 mm
13:07 -8.8 °C -15.2 °C 34395 hPa WNW 15 km/h 15 km/h 46 % 0 mm
13:12 -8.5 °C -15 °C 34395 hPa West 11.9 km/h 11.9 km/h 46 % 0 mm
13:17 -8.5 °C -15 °C 34395 hPa WSW 17.9 km/h 17.9 km/h 46 % 0 mm
13:22 -8.4 °C -15.1 °C 34395 hPa WSW 17.9 km/h 17.9 km/h 45 % 0 mm
13:32 -8.3 °C -15.2 °C 34395 hPa NW 15 km/h 15 km/h 44 % 0 mm
13:37 -8.3 °C -15.2 °C 34361.1 hPa West 16.1 km/h 16.1 km/h 44 % 0 mm
13:42 -8.2 °C -15.1 °C 34361.1 hPa SW 15 km/h 15 km/h 44 % 0 mm
13:52 -7.8 °C -14.9 °C 34395 hPa SW 15 km/h 15 km/h 43 % 0 mm
13:57 -7.6 °C -14.7 °C 34395 hPa West 15.6 km/h 15.6 km/h 43 % 0 mm
14:02 -7.2 °C -14.4 °C 34395 hPa NW 11.9 km/h 11.9 km/h 43 % 0 mm
14:07 -7.2 °C -14.8 °C 34395 hPa SSW 20.9 km/h 20.9 km/h 41 % 0 mm
14:12 -7 °C -14.6 °C 34395 hPa WSW 15 km/h 15 km/h 41 % 0 mm
14:17 -6.8 °C -14.3 °C 34395 hPa SSW 17.9 km/h 17.9 km/h 41 % 0 mm
14:22 -7 °C -14.8 °C 34395 hPa WSW 23.8 km/h 23.8 km/h 40 % 0 mm
14:27 -7.2 °C -14.9 °C 34395 hPa WSW 23.8 km/h 23.8 km/h 40 % 0 mm
14:37 -7 °C -14.8 °C 34395 hPa WNW 17.9 km/h 17.9 km/h 40 % 0 mm
14:42 -6.9 °C -14.7 °C 34395 hPa West 17.4 km/h 17.4 km/h 40 % 0 mm
14:47 -7.1 °C -14.8 °C 34395 hPa WNW 20.9 km/h 20.9 km/h 40 % 0 mm
14:52 -7.1 °C -14.8 °C 34361.1 hPa NW 15 km/h 15 km/h 40 % 0 mm
14:57 -7.2 °C -14.9 °C 34361.1 hPa WSW 19.2 km/h 19.2 km/h 40 % 0 mm
15:02 -7.3 °C -15.1 °C 34361.1 hPa South 23.8 km/h 23.8 km/h 40 % 0 mm
15:07 -7.4 °C -15.1 °C 34395 hPa WSW 23.8 km/h 23.8 km/h 40 % 0 mm
15:12 -7.3 °C -14.8 °C 34395 hPa West 15 km/h 15 km/h 41 % 0 mm
15:17 -7.4 °C -15.2 °C 34395 hPa WSW 20.9 km/h 20.9 km/h 40 % 0 mm
15:22 -7.6 °C -15.2 °C 34395 hPa WSW 17.9 km/h 17.9 km/h 40 % 0 mm
15:27 -7.6 °C -15.1 °C 34395 hPa WSW 11.9 km/h 11.9 km/h 41 % 0 mm
15:32 -7.6 °C -15.1 °C 34395 hPa WSW 16.6 km/h 16.6 km/h 41 % 0 mm
15:37 -7.8 °C -15.2 °C 34395 hPa WSW 26.9 km/h 26.9 km/h 41 % 0 mm
15:42 -7.9 °C -15.4 °C 34395 hPa West 15 km/h 15 km/h 41 % 0 mm
15:47 -7.9 °C -15.2 °C 34395 hPa NW 20.9 km/h 20.9 km/h 42 % 0 mm
15:52 -7.9 °C -15.2 °C 34395 hPa SW 17.4 km/h 17.4 km/h 42 % 0 mm
15:57 -8 °C -15.3 °C 34395 hPa WSW 28.2 km/h 28.2 km/h 42 % 0 mm
16:02 -8 °C -15.3 °C 34395 hPa West 26.9 km/h 26.9 km/h 42 % 0 mm
16:07 -8.1 °C -15.3 °C 34395 hPa SW 15 km/h 15 km/h 42 % 0 mm
16:12 -8 °C -15.3 °C 34395 hPa WNW 17.9 km/h 17.9 km/h 42 % 0 mm
16:17 -8.1 °C -15.3 °C 34395 hPa SSW 15 km/h 15 km/h 42 % 0 mm
16:22 -8.1 °C -15.3 °C 34395 hPa West 20.9 km/h 20.9 km/h 42 % 0 mm
16:27 -8.1 °C -15.2 °C 34395 hPa SW 20.9 km/h 20.9 km/h 43 % 0 mm
16:32 -8.2 °C -15.4 °C 34395 hPa WSW 17.9 km/h 17.9 km/h 42 % 0 mm
16:37 -8.1 °C -15.2 °C 34395 hPa WSW 19.6 km/h 19.6 km/h 43 % 0 mm
16:42 -8.1 °C -15.1 °C 34395 hPa WSW 17.9 km/h 17.9 km/h 43 % 0 mm
16:47 -8 °C -15.1 °C 34395 hPa WSW 11.9 km/h 11.9 km/h 43 % 0 mm
16:52 -8.1 °C -15.1 °C 34395 hPa NW 17.9 km/h 17.9 km/h 43 % 0 mm
16:57 -8.1 °C -15.1 °C 34395 hPa WSW 26.9 km/h 26.9 km/h 43 % 0 mm
17:02 -8 °C -14.9 °C 34395 hPa WSW 11.9 km/h 11.9 km/h 44 % 0 mm
17:07 -8 °C -14.9 °C 34395 hPa WSW 19.2 km/h 19.2 km/h 44 % 0 mm
17:12 -8.1 °C -14.9 °C 34395 hPa WSW 12.7 km/h 12.7 km/h 44 % 0 mm
17:17 -8 °C -14.9 °C 34395 hPa WSW 17.9 km/h 17.9 km/h 44 % 0 mm
17:22 -8 °C -14.9 °C 34361.1 hPa West 20.9 km/h 20.9 km/h 44 % 0 mm
17:27 -7.9 °C -14.8 °C 34361.1 hPa WSW 15 km/h 15 km/h 44 % 0 mm
17:32 -7.9 °C -14.8 °C 34361.1 hPa ENE 29.8 km/h 29.8 km/h 44 % 0 mm
17:37 -7.9 °C -14.8 °C 34395 hPa North 11.9 km/h 11.9 km/h 44 % 0 mm
17:42 -7.9 °C -14.8 °C 34395 hPa SW 11.9 km/h 11.9 km/h 44 % 0 mm
17:47 -7.9 °C -14.8 °C 34395 hPa WSW 29.8 km/h 29.8 km/h 44 % 0 mm
17:52 -8.1 °C -14.9 °C 34395 hPa SW 17.9 km/h 17.9 km/h 44 % 0 mm
17:57 -8.1 °C -15 °C 34395 hPa West 17.9 km/h 17.9 km/h 44 % 0 mm
18:02 -8.1 °C -15 °C 34395 hPa WNW 18.3 km/h 18.3 km/h 44 % 0 mm
18:07 -8.2 °C -15.1 °C 34395 hPa WSW 15 km/h 15 km/h 44 % 0 mm
18:12 -8.2 °C -15.1 °C 34395 hPa SW 23.8 km/h 23.8 km/h 44 % 0 mm
18:17 -8.2 °C -15.1 °C 34395 hPa WSW 20.9 km/h 20.9 km/h 44 % 0 mm
18:22 -8.2 °C -15.1 °C 34395 hPa West 15.6 km/h 15.6 km/h 44 % 0 mm
18:27 -8.3 °C -15.2 °C 34395 hPa WNW 15 km/h 15 km/h 44 % 0 mm
18:32 -8.2 °C -15.1 °C 34395 hPa NNE 9 km/h 9 km/h 44 % 0 mm
18:37 -8.3 °C -15.2 °C 34395 hPa WSW 15 km/h 15 km/h 44 % 0 mm
18:42 -8.3 °C -15.2 °C 34395 hPa WSW 11.9 km/h 11.9 km/h 44 % 0 mm
18:47 -8.3 °C -15.2 °C 34395 hPa SW 11.9 km/h 11.9 km/h 44 % 0 mm
18:52 -8.3 °C -15.1 °C 34428.8 hPa WSW 11.9 km/h 11.9 km/h 45 % 0 mm
18:57 -8.3 °C -15.1 °C 34428.8 hPa SW 11.9 km/h 11.9 km/h 45 % 0 mm
19:02 -8.3 °C -15.1 °C 34428.8 hPa WSW 9.3 km/h 9.3 km/h 45 % 0 mm
19:07 -8.4 °C -14.9 °C 34395 hPa West 11.9 km/h 11.9 km/h 46 % 0 mm
19:12 -8.4 °C -14.9 °C 34395 hPa West 6 km/h 6 km/h 46 % 0 mm
19:17 -8.4 °C -14.9 °C 34395 hPa WSW 6 km/h 6 km/h 46 % 0 mm
19:22 -8.4 °C -14.8 °C 34395 hPa WSW 3.1 km/h 3.1 km/h 47 % 0 mm
19:27 -8.5 °C -14.8 °C 34395 hPa WSW 6.8 km/h 6.8 km/h 47 % 0 mm
19:32 -8.5 °C -14.8 °C 34395 hPa WSW 9 km/h 9 km/h 47 % 0 mm
19:37 -8.5 °C -14.8 °C 34428.8 hPa NNW 6 km/h 6 km/h 47 % 0 mm
19:42 -8.6 °C -14.9 °C 34428.8 hPa WSW 3.1 km/h 3.1 km/h 47 % 0 mm
19:47 -8.6 °C -14.9 °C 34428.8 hPa WSW 7.6 km/h 7.6 km/h 47 % 0 mm
19:52 -8.6 °C -14.9 °C 34395 hPa WSW 11.9 km/h 11.9 km/h 47 % 0 mm
19:57 -8.7 °C -14.9 °C 34395 hPa SW 5.1 km/h   47 % 0 mm
20:02 -8.7 °C -14.8 °C 34395 hPa WSW 6 km/h 6 km/h 48 % 0 mm
20:07 -8.8 °C -14.9 °C 34395 hPa WSW 6 km/h 6 km/h 48 % 0 mm
20:12 -8.8 °C -14.9 °C 34395 hPa WSW 6 km/h 6 km/h 48 % 0 mm
20:22 -8.9 °C -15 °C 34395 hPa West 6 km/h 6 km/h 48 % 0 mm
20:27 -8.9 °C -15.1 °C 34395 hPa WSW 6.3 km/h 6.3 km/h 48 % 0 mm
20:32 -9 °C -14.9 °C 34395 hPa WSW 4.2 km/h 4.2 km/h 49 % 0 mm
20:37 -9 °C -15.1 °C 34428.8 hPa WSW 15 km/h 15 km/h 48 % 0 mm
20:42 -8.9 °C -14.9 °C 34428.8 hPa West 17.9 km/h 17.9 km/h 49 % 0 mm
20:47 -9 °C -14.9 °C 34428.8 hPa WSW 11.9 km/h 11.9 km/h 49 % 0 mm
20:52 -9.1 °C -14.8 °C 34395 hPa West 17.9 km/h 17.9 km/h 50 % 0 mm
20:57 -9.1 °C -14.8 °C 34395 hPa SSE 11.9 km/h 11.9 km/h 50 % 0 mm
21:02 -9.1 °C -14.9 °C 34395 hPa WSW 15 km/h 15 km/h 50 % 0 mm
21:07 -9.2 °C -14.9 °C 34395 hPa SW 15 km/h 15 km/h 50 % 0 mm
21:12 -9.2 °C -15 °C 34395 hPa WSW 6 km/h 6.3 km/h 50 % 0 mm
21:17 -9.3 °C -14.9 °C 34395 hPa WSW 9 km/h 9 km/h 51 % 0 mm
21:22 -9.4 °C -14.9 °C 34395 hPa WSW 9 km/h 9 km/h 51 % 0 mm
21:27 -9.4 °C -15.1 °C 34395 hPa WSW 6.3 km/h 6.3 km/h 51 % 0 mm
21:32 -9.6 °C -15.2 °C 34395 hPa WSW 6.3 km/h 6.3 km/h 51 % 0 mm
21:42 -9.8 °C -15.2 °C 34395 hPa SW 6 km/h 6 km/h 52 % 0 mm
21:47 -9.8 °C -15.2 °C 34395 hPa WSW 6 km/h 6 km/h 52 % 0 mm
21:52 -9.9 °C -15.3 °C 34395 hPa SW 3.7 km/h 3.7 km/h 52 % 0 mm
21:57 -9.9 °C -15.3 °C 34395 hPa WSW 6.3 km/h 6.3 km/h 52 % 0 mm
22:02 -9.9 °C -15.3 °C 34395 hPa West 6 km/h 6 km/h 52 % 0 mm
22:07 -9.9 °C -15.3 °C 34428.8 hPa WSW 6.8 km/h 6.8 km/h 52 % 0 mm
22:12 -9.9 °C -15.2 °C 34428.8 hPa WSW 9 km/h 9 km/h 53 % 0 mm
22:22 -9.9 °C -15.2 °C 34428.8 hPa WSW 12.7 km/h 12.7 km/h 53 % 0 mm
22:27 -9.9 °C -15 °C 34428.8 hPa WSW 15 km/h 15 km/h 54 % 0 mm
22:32 -9.8 °C -14.9 °C 34428.8 hPa WSW 15 km/h 15 km/h 54 % 0 mm
22:37 -9.8 °C -14.9 °C 34428.8 hPa WSW 11.9 km/h 11.9 km/h 54 % 0 mm
22:42 -9.8 °C -14.9 °C 34428.8 hPa WNW 17.9 km/h 17.9 km/h 54 % 0 mm
22:47 -9.8 °C -14.9 °C 34428.8 hPa WNW 15 km/h 15 km/h 54 % 0 mm
22:52 -9.8 °C -14.9 °C 34428.8 hPa SW 9 km/h 9 km/h 54 % 0 mm
22:57 -9.8 °C -14.9 °C 34428.8 hPa West 6 km/h 6 km/h 54 % 0 mm
23:02 -9.8 °C -14.9 °C 34428.8 hPa SW 3.1 km/h   54 % 0 mm
23:07 -9.8 °C -14.9 °C 34462.7 hPa SE 3.1 km/h 3.1 km/h 54 % 0 mm
23:12 -9.8 °C -14.9 °C 34462.7 hPa WSW 6.8 km/h 6.8 km/h 54 % 0 mm
23:17 -10.1 °C -15.1 °C 34462.7 hPa SW 9 km/h 9 km/h 55 % 0 mm
23:22 -10.2 °C -15.1 °C 34462.7 hPa SW 6.3 km/h 6.3 km/h 55 % 0 mm
23:27 -10.2 °C -15.1 °C 34462.7 hPa SW 6 km/h 6 km/h 55 % 0 mm
23:32 -10.1 °C -15 °C 34462.7 hPa WSW 11.9 km/h 11.9 km/h 55 % 0 mm
23:37 -10.1 °C -15 °C 34462.7 hPa West 6 km/h 6 km/h 55 % 0 mm
Meteo Sesrovires
Elogis d' Weather Underground - 3.5 mb

Guio original per  Jim McMurry - jmcmurry@mwt.net Adaptat per a la plantilla per  Wim van der Kuil - Leuven-Template.eu

Trobareu la nostra informacio del temps tambe a:

Weather Underground

AWEKAS